เซียะเหมิน, Fujian

07:07 PM CST วัน กรกฎาคม 23, 2014 (GMT +0800)
Gaoqi (ZSAM) Elev 59 ft | 24.54 °N, 118.14 °E | Change Station

Current weather conditions updated 7 minutes ago

Light Rain
ฝนตกเบาบาง
79 ฟาเรนไฮน์
Feels Like 79 ฟาเรนไฮน์
N
13
ลม ความผันแปร ลม from ทางทิศตะวันตกและทิศตะวันตกเฉียงใต้
Gusts 25 mph

Tomorrow is forecast to be Cooler than today. พายุฟ้าคะนอง.

วันนี้
High -- | Low -- ฟาเรนไฮน์
--% Chance of Precip.
Yesterday
High -- | Low -- ฟาเรนไฮน์
Precip. -- นิ้ว
5:31 AM 6:56 PM
เดือนเสี้ยว, 11% visible
ความดัน 29.27 นิ้ว
ทัศนวิสัย 5.0 ไมล์
เมฆ มีเมฆคลุมเป็นส่วนใหญ่ 6000 ft
อุณหภูมิที่อากาศอาจจับตัวเป็นหยาดน้ำค้าง 79 ฟาเรนไฮน์
ความชื้น 100%
Rainfall 0.00 นิ้ว
Snow Depth Not available.
UV 0 out of 12
Pollen Not available.
Air Quality Not available.
Flu Activity Not available.
METAR ZSAM 231100Z 24006G11MPS 210V270 8000 -RA BKN060 26/26 Q0991 BECMG TL1230 RA

More Conditions Fewer Conditions

ความดัน 29.27 นิ้ว
ทัศนวิสัย 5.0 ไมล์
เมฆ มีเมฆคลุมเป็นส่วนใหญ่ 6000 ft
อุณหภูมิที่อากาศอาจจับตัวเป็นหยาดน้ำค้าง 79 ฟาเรนไฮน์
ความชื้น 100%
Rainfall 0.00 นิ้ว
Snow Depth Not available.
UV 0 out of 12
Pollen Not available.
Air Quality Not available.
Flu Activity Not available.
METAR ZSAM 231100Z 24006G11MPS 210V270 8000 -RA BKN060 26/26 Q0991 BECMG TL1230 RA

More Conditions Fewer Conditions

10-Day Weather Forecast

Almanac

ดาราศาสตร์

Jul. 23, 2014 Rise Set
Actual Time 5:31 AM CST 6:56 PM CST
Civil Twilight 5:06 AM CST 7:21 PM CST
Nautical Twilight 4:37 AM CST 7:50 PM CST
Astronomical Twilight 4:06 AM CST 8:21 PM CST
Moon 2:20 AM CST 3:58 PM CST
Length Of Visible Light 14h 14m
ความยาวของวัน
13h 24m
Tomorrow will be 0m 53s shorter.
เดือนเสี้ยว, 11% of the Moon is Illuminated
วันนี้
เดือนเสี้ยว
Jul 26
New
Aug 3
ไตรมาสแรก
Aug 10
พระจันทร์เต็มดวง
Aug 17
ไตรมาสล่าสุด

Yesterday's Extremes

Country Highs Country Lows

Community

WunderPhotos

Upload Photos

1,736,558 photos uploaded!

Nearby

Snow Depth

Not available.

Earthquake Activity

City Distance Mag. Time & Date
No recent earthquake activity has been reported nearby.
Minimum magnitude displayed is 2.5.

Coastal Water Temperatures

สถานที่ อุณหภูมิ
No Stations Reporting

Nearby Weather Stations

Station Location Temp ดัชนีความร้อน อุณหภูมิที่อากาศอาจจับตัวเป็นหยาดน้ำค้าง ความชื้น ลม Precip. Elev ปรับปรุงล่าสุด Type
KERO_WeatherStation, JinChen TownShip 79.6 ฟาเรนไฮน์ 85 ฟาเรนไฮน์ 78 ฟาเรนไฮน์ 95% ทางทิศเหนือ  ความเร็วที่  0.0 mph 0.10 นิ้ว / hr 30 ft 7:05 PM CST Normal

Show More Stations Show Fewer Stations